Terminal Aerodrome Forecast
Issued by NWS Pocatello, ID

Home | Current Version | Previous Version | Text Only | Print | Product List | Glossary On
Versions: 1 2 3 4 5 6 7 8 9 10 11 12 13 14 15 16 17 18 19 20 21
891
FTUS45 KPIH 110520
TAFBYI
TAF
KBYI 110520Z 1106/1206 07007KT P6SM SCT004 SCT120
     FM111500 08010KT P6SM SCT120 SCT180
     FM112200 08010KT P6SM BKN100 BKN140
     FM120400 07007KT P6SM SCT100 SCT180=

USA.gov is the U.S. government's official web portal to all federal, state and local government web resources and services.